Time;durP1;ratioP1;P1;durP2;ratioP2;P2;SDS_P1;SDS_P2;PMS_P1;PMS_P2;Temp;Humidity;BMP_temperature;BMP_pressure;BME280_temperature;BME280_humidity;BME280_pressure;Samples;Min_cycle;Max_cycle;Signal;HPM_P1;HPM_P2
2024/01/23 00:01:12;;;;;;;0.43;0.43;;;;;;;0.35;56.46;102739.13;4861776;29;20401;-87
2024/01/23 00:03:38;;;;;;;0.60;0.60;;;;;;;0.34;56.41;102737.44;4861696;29;20765;-88
2024/01/23 00:06:06;;;;;;;0.30;0.30;;;;;;;0.36;56.71;102727.78;4877015;29;20401;-87
2024/01/23 00:08:32;;;;;;;0.52;0.32;;;;;;;0.39;56.80;102716.38;4863262;29;20410;-88
2024/01/23 00:10:58;;;;;;;0.70;0.40;;;;;;;0.32;56.61;102722.72;4861472;29;20481;-88
2024/01/23 00:13:23;;;;;;;0.93;0.30;;;;;;;0.16;57.33;102722.41;4860754;29;20408;-87
2024/01/23 00:15:50;;;;;;;0.70;0.60;;;;;;;0.05;57.57;102730.59;4859621;29;20979;-86
2024/01/23 00:18:15;;;;;;;0.10;0.10;;;;;;;0.01;57.17;102722.94;4874810;29;20406;-87
2024/01/23 00:20:41;;;;;;;0.40;0.40;;;;;;;0.16;57.41;102717.19;4860053;29;20401;-86
2024/01/23 00:23:06;;;;;;;0.10;0.10;;;;;;;0.44;56.69;102711.84;4860845;29;20409;-86
2024/01/23 00:25:32;;;;;;;1.70;0.65;;;;;;;0.42;56.45;102710.22;4888242;29;20916;-84
2024/01/23 00:27:58;;;;;;;0.25;0.25;;;;;;;0.14;57.23;102714.63;4866068;29;20414;-87
2024/01/23 00:30:26;;;;;;;0.90;0.90;;;;;;;-0.01;57.60;102708.19;4861690;29;20469;-87
2024/01/23 00:32:55;;;;;;;0.70;0.70;;;;;;;0.04;57.50;102709.78;4859662;29;20417;-88
2024/01/23 00:35:20;;;;;;;0.77;0.60;;;;;;;-0.15;57.86;102701.72;4873029;29;20390;-87
2024/01/23 00:37:46;;;;;;;2.90;2.00;;;;;;;-0.17;57.67;102727.00;4873380;29;20401;-87
2024/01/23 00:40:12;;;;;;;0.70;0.70;;;;;;;-0.28;57.90;102709.97;4857783;29;20444;-87
2024/01/23 00:42:54;;;;;;;0.50;0.50;;;;;;;-0.23;57.82;102702.00;4873261;29;20438;-86
2024/01/23 00:45:20;;;;;;;2.97;1.37;;;;;;;-0.22;57.37;102691.53;4872896;29;20485;-86
2024/01/23 00:47:46;;;;;;;0.60;0.60;;;;;;;0.03;57.07;102697.66;4859152;29;20429;-87
2024/01/23 00:50:11;;;;;;;0.90;0.90;;;;;;;0.27;56.82;102699.41;4859578;29;20437;-87
2024/01/23 00:52:37;;;;;;;0.50;0.50;;;;;;;0.30;56.46;102688.84;4861238;29;20428;-87
2024/01/23 00:55:04;;;;;;;0.40;0.40;;;;;;;0.34;56.40;102692.22;4880483;29;20416;-89
2024/01/23 00:57:30;;;;;;;0.40;0.30;;;;;;;0.25;56.61;102688.16;4870224;29;20503;-87
2024/01/23 00:59:56;;;;;;;2.40;1.10;;;;;;;-0.08;56.85;102671.94;4867651;29;20858;-87
2024/01/23 01:02:22;;;;;;;0.50;0.50;;;;;;;-0.30;57.65;102677.88;4859855;29;20433;-86
2024/01/23 01:04:49;;;;;;;0.10;0.10;;;;;;;-0.42;57.75;102679.13;4858258;29;20425;-86
2024/01/23 01:07:23;;;;;;;0.30;0.30;;;;;;;-0.41;58.11;102672.19;4858256;29;20834;-86
2024/01/23 01:09:53;;;;;;;0.63;0.63;;;;;;;-0.32;58.02;102661.44;4859211;29;20390;-86
2024/01/23 01:12:18;;;;;;;0.22;0.22;;;;;;;-0.05;57.57;102666.63;4859274;29;20466;-87
2024/01/23 01:14:44;;;;;;;0.70;0.70;;;;;;;-0.02;56.97;102661.28;4858139;29;20422;-87
2024/01/23 01:17:10;;;;;;;0.50;0.50;;;;;;;0.07;56.92;102653.16;4859343;29;20401;-87
2024/01/23 01:19:36;;;;;;;1.13;1.13;;;;;;;0.12;56.55;102645.19;4873991;29;20774;-88
2024/01/23 01:22:02;;;;;;;0.23;0.23;;;;;;;0.02;56.94;102649.88;4858465;29;20473;-88
2024/01/23 01:24:28;;;;;;;0.82;0.82;;;;;;;-0.10;57.34;102645.94;4859021;29;20397;-87
2024/01/23 01:26:54;;;;;;;0.37;0.37;;;;;;;-0.14;57.37;102644.34;4857474;29;20425;-87
2024/01/23 01:29:19;;;;;;;0.50;0.50;;;;;;;-0.17;57.42;102641.84;4858155;29;20408;-86
2024/01/23 01:31:45;;;;;;;0.53;0.53;;;;;;;-0.08;57.73;102627.63;4856420;29;20459;-86
2024/01/23 01:34:11;;;;;;;3.10;1.60;;;;;;;-0.06;56.93;102621.44;4856348;29;20401;-86
2024/01/23 01:36:37;;;;;;;0.20;0.20;;;;;;;-0.10;57.12;102613.81;4856630;29;20465;-86
2024/01/23 01:39:03;;;;;;;0.30;0.30;;;;;;;0.01;56.98;102610.81;4856629;29;20461;-87
2024/01/23 01:41:29;;;;;;;0.40;0.40;;;;;;;0.13;56.45;102610.38;4872890;29;20492;-86
2024/01/23 01:43:54;;;;;;;0.40;0.40;;;;;;;0.04;56.36;102595.03;4859041;29;20773;-86
2024/01/23 01:46:23;;;;;;;0.40;0.40;;;;;;;0.17;56.63;102593.72;4857962;29;20401;-86
2024/01/23 01:48:49;;;;;;;0.40;0.40;;;;;;;0.27;56.22;102589.00;4858000;29;20476;-86
2024/01/23 01:51:20;;;;;;;0.63;0.63;;;;;;;0.24;56.18;102586.53;4858070;29;20421;-87
2024/01/23 01:53:46;;;;;;;0.70;0.60;;;;;;;0.15;56.25;102591.16;4873967;29;20413;-86
2024/01/23 01:56:13;;;;;;;0.85;0.82;;;;;;;0.11;56.72;102573.94;4863477;29;20398;-86
2024/01/23 01:58:42;;;;;;;0.33;0.33;;;;;;;0.24;56.52;102573.47;4866804;29;20393;-87
2024/01/23 02:01:10;;;;;;;0.22;0.22;;;;;;;0.28;56.37;102564.63;4882760;29;20412;-86
2024/01/23 02:03:37;;;;;;;1.27;1.00;;;;;;;0.13;56.18;102569.50;4881989;29;20398;-89
2024/01/23 02:06:04;;;;;;;0.60;0.60;;;;;;;0.14;56.36;102576.41;4881656;29;20404;-87
2024/01/23 02:08:30;;;;;;;0.68;0.30;;;;;;;0.14;56.42;102565.97;4880480;29;20435;-86
2024/01/23 02:10:56;;;;;;;0.40;0.40;;;;;;;0.11;56.07;102558.28;4884533;29;20428;-87
2024/01/23 02:13:27;;;;;;;0.60;0.60;;;;;;;-0.17;56.89;102555.81;4880625;29;20504;-87
2024/01/23 02:15:53;;;;;;;0.90;0.90;;;;;;;-0.22;56.83;102556.00;4867709;29;20484;-87
2024/01/23 02:18:18;;;;;;;1.20;0.70;;;;;;;-0.17;57.05;102550.59;4878279;29;20412;-87
2024/01/23 02:20:45;;;;;;;0.40;0.40;;;;;;;-0.19;56.70;102549.81;4875717;29;20412;-86
2024/01/23 02:23:14;;;;;;;0.50;0.50;;;;;;;-0.15;56.70;102548.78;4863751;29;20413;-86
2024/01/23 02:25:41;;;;;;;0.50;0.50;;;;;;;-0.17;57.15;102548.00;4839667;29;20406;-87
2024/01/23 02:28:07;;;;;;;0.60;0.50;;;;;;;0.00;56.69;102544.81;4862794;29;20436;-85
2024/01/23 02:30:34;;;;;;;0.68;0.60;;;;;;;0.17;56.48;102523.31;4862516;29;20402;-86
2024/01/23 02:33:04;;;;;;;0.43;0.43;;;;;;;0.14;56.20;102518.19;4855012;29;20409;-85
2024/01/23 02:35:33;;;;;;;0.60;0.60;;;;;;;0.04;56.27;102515.09;4855448;29;20912;-86
2024/01/23 02:38:00;;;;;;;0.98;0.80;;;;;;;-0.07;56.99;102519.84;4860212;29;20442;-85
2024/01/23 02:40:26;;;;;;;0.30;0.30;;;;;;;-0.10;57.00;102509.53;4845083;29;20417;-85
2024/01/23 02:42:52;;;;;;;0.27;0.27;;;;;;;-0.16;57.19;102507.13;4861314;29;20401;-85
2024/01/23 02:45:18;;;;;;;0.45;0.45;;;;;;;-0.25;57.56;102510.94;4860098;29;20797;-86
2024/01/23 02:47:44;;;;;;;0.40;0.35;;;;;;;-0.46;57.86;102497.78;4859984;29;20425;-86
2024/01/23 02:50:10;;;;;;;0.20;0.20;;;;;;;-0.32;57.96;102499.06;4861421;29;20822;-86
2024/01/23 02:52:36;;;;;;;0.20;0.20;;;;;;;-0.39;57.76;102493.19;4860848;29;20417;-86
2024/01/23 02:55:02;;;;;;;0.27;0.27;;;;;;;-0.37;57.77;102490.53;4861084;29;20421;-87
2024/01/23 02:57:30;;;;;;;0.50;0.50;;;;;;;-0.47;58.18;102497.81;4859080;29;20785;-86
2024/01/23 02:59:56;;;;;;;0.20;0.20;;;;;;;-0.47;58.04;102492.59;4859521;29;20398;-86
2024/01/23 03:02:23;;;;;;;0.20;0.20;;;;;;;-0.50;58.20;102493.59;4860626;29;20523;-86
2024/01/23 03:04:49;;;;;;;1.42;1.33;;;;;;;-0.67;58.38;102491.53;4860548;29;20401;-88
2024/01/23 03:07:15;;;;;;;0.50;0.50;;;;;;;-0.78;58.88;102496.28;4861316;29;20457;-86
2024/01/23 03:09:41;;;;;;;0.50;0.50;;;;;;;-0.70;58.55;102485.59;4870862;29;20397;-85
2024/01/23 03:12:18;;;;;;;0.38;0.30;;;;;;;-0.70;58.53;102470.84;4883304;29;20437;-87
2024/01/23 03:14:45;;;;;;;0.98;0.88;;;;;;;-0.42;58.28;102475.91;4884480;29;20438;-87
2024/01/23 03:17:15;;;;;;;0.50;0.50;;;;;;;-0.21;57.55;102460.41;4884395;29;20460;-87
2024/01/23 03:19:42;;;;;;;0.40;0.35;;;;;;;-0.11;57.01;102464.38;4879823;29;20437;-87
2024/01/23 03:22:12;;;;;;;0.60;0.40;;;;;;;-0.27;57.45;102463.22;4876317;29;20397;-87
2024/01/23 03:24:38;;;;;;;0.30;0.30;;;;;;;-0.35;57.71;102467.88;4868350;29;20405;-88
2024/01/23 03:27:06;;;;;;;0.35;0.35;;;;;;;-0.37;57.65;102472.31;4876826;29;20390;-87
2024/01/23 03:29:42;;;;;;;0.70;0.37;;;;;;;-0.35;57.59;102476.53;4860588;29;20409;-87
2024/01/23 03:32:09;;;;;;;0.38;0.30;;;;;;;-0.25;57.48;102472.69;4861406;29;20421;-87
2024/01/23 03:34:36;;;;;;;1.80;1.70;;;;;;;-0.44;57.80;102467.28;4860922;29;20537;-87
2024/01/23 03:37:02;;;;;;;1.20;1.10;;;;;;;-0.47;57.75;102467.44;4861714;29;20545;-87
2024/01/23 03:39:28;;;;;;;0.20;0.20;;;;;;;-0.35;57.60;102480.91;4861367;29;20477;-87
2024/01/23 03:41:53;;;;;;;0.20;0.20;;;;;;;-0.33;57.58;102479.09;4859036;29;20401;-86
2024/01/23 03:44:22;;;;;;;0.30;0.30;;;;;;;-0.35;57.44;102470.50;4860007;29;20404;-87
2024/01/23 03:46:48;;;;;;;0.38;0.38;;;;;;;-0.41;57.60;102471.56;4860463;29;20445;-88
2024/01/23 03:49:14;;;;;;;0.40;0.40;;;;;;;-0.53;57.87;102474.59;4859626;29;20400;-87
2024/01/23 03:51:42;;;;;;;0.20;0.20;;;;;;;-0.62;58.16;102480.97;4860585;29;20417;-87
2024/01/23 03:54:08;;;;;;;0.60;0.60;;;;;;;-0.76;58.29;102468.44;4860514;29;20896;-87
2024/01/23 03:56:33;;;;;;;0.70;0.40;;;;;;;-0.75;58.72;102483.16;4857646;29;20437;-87
2024/01/23 03:58:59;;;;;;;0.30;0.30;;;;;;;-0.71;58.61;102476.94;4858322;29;20412;-88
2024/01/23 04:01:25;;;;;;;1.17;1.07;;;;;;;-0.63;58.26;102484.47;4859072;29;20409;-87
2024/01/23 04:03:50;;;;;;;0.77;0.57;;;;;;;-0.63;58.32;102480.13;4857014;29;20429;-88
2024/01/23 04:06:17;;;;;;;0.30;0.30;;;;;;;-0.71;57.93;102476.09;4872863;29;20490;-88
2024/01/23 04:08:43;;;;;;;0.40;0.30;;;;;;;-0.85;58.19;102468.75;4858937;29;20398;-86
2024/01/23 04:11:09;;;;;;;0.40;0.40;;;;;;;-0.77;58.59;102484.97;4870878;29;20445;-86
2024/01/23 04:13:36;;;;;;;0.80;0.60;;;;;;;-0.63;58.54;102479.28;4859301;29;20454;-88
2024/01/23 04:16:02;;;;;;;0.30;0.30;;;;;;;-0.48;58.29;102483.94;4858692;29;20827;-87
2024/01/23 04:18:28;;;;;;;0.35;0.35;;;;;;;-0.47;57.89;102472.63;4858861;29;20402;-88
2024/01/23 04:20:54;;;;;;;1.30;1.00;;;;;;;-0.49;57.68;102468.38;4875617;29;20415;-89
2024/01/23 04:23:19;;;;;;;0.30;0.30;;;;;;;-0.51;57.73;102473.63;4860511;29;20457;-89
2024/01/23 04:25:45;;;;;;;0.70;0.70;;;;;;;-0.42;57.64;102477.66;4878481;29;20406;-88
2024/01/23 04:28:11;;;;;;;0.50;0.50;;;;;;;-0.40;57.83;102487.16;4863007;29;20401;-85
2024/01/23 04:30:38;;;;;;;0.20;0.20;;;;;;;-0.37;57.59;102477.53;4871628;29;20441;-85
2024/01/23 04:33:04;;;;;;;1.10;1.10;;;;;;;-0.37;57.60;102477.53;4859887;29;20861;-87
2024/01/23 04:35:29;;;;;;;0.77;0.38;;;;;;;-0.42;57.57;102482.88;4859773;29;20390;-86
2024/01/23 04:37:58;;;;;;;0.85;0.80;;;;;;;-0.59;57.94;102479.13;4859608;29;20790;-87
2024/01/23 04:40:24;;;;;;;0.47;0.47;;;;;;;-0.57;58.18;102486.03;4859612;29;20412;-88
2024/01/23 04:42:49;;;;;;;0.20;0.20;;;;;;;-0.52;57.88;102481.50;4858913;29;20794;-87
2024/01/23 04:45:16;;;;;;;0.23;0.23;;;;;;;-0.45;57.82;102490.78;4859705;29;20413;-88
2024/01/23 04:47:42;;;;;;;0.20;0.20;;;;;;;-0.35;57.72;102492.19;4858707;29;20418;-87
2024/01/23 04:50:08;;;;;;;1.00;1.00;;;;;;;-0.32;57.58;102494.69;4858703;29;20410;-86
2024/01/23 04:52:34;;;;;;;0.17;0.17;;;;;;;-0.29;57.71;102485.88;4858304;29;20504;-86
2024/01/23 04:54:59;;;;;;;1.00;0.47;;;;;;;-0.28;57.23;102483.22;4858684;29;20400;-86
2024/01/23 04:57:31;;;;;;;0.20;0.20;;;;;;;-0.21;57.27;102487.31;4858723;29;20428;-86
2024/01/23 05:00:00;;;;;;;0.50;0.50;;;;;;;-0.22;57.24;102482.16;4857969;29;20461;-86
2024/01/23 05:02:26;;;;;;;0.40;0.40;;;;;;;-0.25;57.13;102480.53;4857457;29;20434;-85
2024/01/23 05:04:52;;;;;;;2.40;1.33;;;;;;;-0.33;57.63;102479.94;4854713;29;20410;-85
2024/01/23 05:07:19;;;;;;;0.55;0.55;;;;;;;-0.30;57.53;102481.59;4855885;29;20414;-87
2024/01/23 05:09:44;;;;;;;0.50;0.40;;;;;;;-0.42;57.48;102477.66;4855800;29;20402;-87
2024/01/23 05:12:10;;;;;;;0.20;0.20;;;;;;;-0.52;57.89;102484.97;4856226;29;20422;-87
2024/01/23 05:14:36;;;;;;;0.30;0.30;;;;;;;-0.51;58.19;102489.25;4858116;29;20405;-87
2024/01/23 05:17:02;;;;;;;0.20;0.20;;;;;;;-0.48;58.00;102483.13;4860235;29;20408;-87
2024/01/23 05:19:29;;;;;;;0.30;0.30;;;;;;;-0.44;57.94;102497.72;4857223;29;20445;-87
2024/01/23 05:21:55;;;;;;;0.77;0.77;;;;;;;-0.45;57.83;102489.06;4858434;29;20397;-86
2024/01/23 05:24:20;;;;;;;0.50;0.50;;;;;;;-0.42;57.92;102496.75;4857961;29;20394;-86
2024/01/23 05:26:46;;;;;;;0.50;0.30;;;;;;;-0.38;57.52;102489.66;4858237;29;20873;-87
2024/01/23 05:29:12;;;;;;;0.30;0.30;;;;;;;-0.39;57.63;102490.59;4857839;29;20401;-85
2024/01/23 05:31:38;;;;;;;0.57;0.57;;;;;;;-0.43;57.85;102494.22;4857403;29;20477;-87
2024/01/23 05:34:03;;;;;;;0.90;0.60;;;;;;;-0.41;57.72;102495.00;4858236;29;20402;-86
2024/01/23 05:36:29;;;;;;;0.20;0.20;;;;;;;-0.31;57.60;102496.34;4856940;29;20448;-85
2024/01/23 05:38:54;;;;;;;2.78;1.20;;;;;;;-0.36;57.51;102482.69;4856365;29;20777;-85
2024/01/23 05:41:20;;;;;;;0.40;0.40;;;;;;;-0.37;57.97;102494.00;4857706;29;20839;-86
2024/01/23 05:43:46;;;;;;;0.50;0.50;;;;;;;-0.37;57.73;102495.75;4857723;29;20424;-87
2024/01/23 05:46:11;;;;;;;1.88;1.65;;;;;;;-0.53;57.98;102487.63;4856846;29;21000;-85
2024/01/23 05:48:37;;;;;;;0.40;0.40;;;;;;;-0.44;57.66;102495.13;4859114;29;20466;-84
2024/01/23 05:51:02;;;;;;;0.37;0.37;;;;;;;-0.27;57.65;102482.34;4862523;29;20779;-85
2024/01/23 05:53:31;;;;;;;0.20;0.20;;;;;;;-0.17;57.29;102489.81;4863335;29;20397;-86
2024/01/23 05:55:57;;;;;;;0.27;0.23;;;;;;;-0.12;57.33;102487.91;4864818;29;20414;-86
2024/01/23 05:58:22;;;;;;;0.30;0.30;;;;;;;-0.05;56.90;102485.00;4858383;29;20410;-87
2024/01/23 06:00:52;;;;;;;0.77;0.60;;;;;;;0.01;56.98;102491.72;4856449;29;20895;-89
2024/01/23 06:03:25;;;;;;;0.68;0.65;;;;;;;0.04;57.10;102483.81;4860897;29;20854;-87
2024/01/23 06:05:51;;;;;;;0.20;0.20;;;;;;;0.08;56.96;102471.50;4858311;29;20421;-85
2024/01/23 06:08:17;;;;;;;0.30;0.30;;;;;;;0.18;56.69;102473.69;4861400;29;20790;-84
2024/01/23 06:10:42;;;;;;;1.60;0.90;;;;;;;0.29;56.60;102480.22;4865546;29;20416;-85
2024/01/23 06:13:08;;;;;;;0.20;0.20;;;;;;;0.33;56.30;102480.06;4861389;29;20761;-87
2024/01/23 06:15:34;;;;;;;0.40;0.40;;;;;;;0.35;56.52;102472.19;4867392;29;20797;-90
2024/01/23 06:17:59;;;;;;;0.60;0.60;;;;;;;0.40;56.74;102480.69;4880219;29;20402;-86
2024/01/23 06:20:39;;;;;;;0.23;0.23;;;;;;;0.48;56.55;102485.59;4861484;29;20401;-87
2024/01/23 06:23:05;;;;;;;0.30;0.30;;;;;;;0.49;56.51;102489.91;4862498;29;20445;-87
2024/01/23 06:25:31;;;;;;;0.65;0.32;;;;;;;0.57;56.28;102488.66;4863588;29;20406;-87
2024/01/23 06:27:57;;;;;;;0.30;0.30;;;;;;;0.66;56.08;102505.72;4864965;29;20405;-86
2024/01/23 06:30:23;;;;;;;0.20;0.20;;;;;;;0.64;56.31;102506.72;4866775;29;20461;-87
2024/01/23 06:32:51;;;;;;;0.17;0.17;;;;;;;0.61;56.26;102504.22;4861018;29;20464;-87
2024/01/23 06:35:19;;;;;;;0.85;0.85;;;;;;;0.48;56.10;102511.69;4858951;29;20402;-87
2024/01/23 06:37:45;;;;;;;1.00;0.97;;;;;;;0.17;56.43;102499.81;4863418;29;20952;-88
2024/01/23 06:40:14;;;;;;;0.25;0.25;;;;;;;0.10;57.22;102508.78;4861163;29;20402;-88
2024/01/23 06:42:40;;;;;;;0.55;0.55;;;;;;;0.19;57.10;102504.06;4860649;29;20432;-88
2024/01/23 06:45:06;;;;;;;0.47;0.47;;;;;;;0.26;56.51;102515.13;4860931;29;20939;-87
2024/01/23 06:47:34;;;;;;;0.37;0.37;;;;;;;0.11;56.52;102516.56;4860402;29;20413;-83
2024/01/23 06:50:03;;;;;;;0.80;0.80;;;;;;;-0.06;57.21;102514.56;4861651;29;20486;-85
2024/01/23 06:52:34;;;;;;;0.90;0.70;;;;;;;-0.02;57.21;102508.34;4861276;29;20428;-84
2024/01/23 06:55:07;;;;;;;0.50;0.47;;;;;;;0.23;56.90;102506.56;4862131;29;20402;-86
2024/01/23 06:57:36;;;;;;;0.90;0.90;;;;;;;0.43;56.31;102511.00;4862238;29;20397;-88
2024/01/23 07:00:05;;;;;;;0.75;0.30;;;;;;;0.41;56.28;102518.06;4862075;29;20481;-86
2024/01/23 07:02:48;;;;;;;0.40;0.40;;;;;;;0.42;56.36;102512.78;4864375;29;20412;-86
2024/01/23 07:05:13;;;;;;;0.40;0.30;;;;;;;0.55;56.30;102523.59;4868399;29;20441;-87
2024/01/23 07:07:39;;;;;;;0.30;0.30;;;;;;;0.62;56.15;102519.81;4864994;29;20441;-88
2024/01/23 07:10:05;;;;;;;0.43;0.43;;;;;;;0.66;55.96;102515.31;4862876;29;20422;-88
2024/01/23 07:12:31;;;;;;;0.70;0.70;;;;;;;0.65;56.02;102514.50;4844875;29;20943;-89
2024/01/23 07:14:56;;;;;;;0.67;0.50;;;;;;;0.75;55.94;102525.41;4874951;29;20438;-89
2024/01/23 07:17:31;;;;;;;1.07;1.00;;;;;;;0.68;56.13;102510.88;4860287;29;20445;-88
2024/01/23 07:19:58;;;;;;;0.32;0.32;;;;;;;0.79;55.81;102521.75;4859024;29;20401;-88
2024/01/23 07:22:26;;;;;;;0.40;0.40;;;;;;;0.80;55.86;102536.50;4865250;29;21027;-88
2024/01/23 07:24:55;;;;;;;1.03;0.93;;;;;;;0.82;56.20;102534.69;4865652;29;20413;-87
2024/01/23 07:27:22;;;;;;;0.50;0.50;;;;;;;0.81;55.95;102534.75;4866761;29;20444;-88
2024/01/23 07:29:47;;;;;;;0.30;0.30;;;;;;;0.81;55.70;102529.50;4863983;29;20437;-88
2024/01/23 07:32:13;;;;;;;0.33;0.33;;;;;;;0.71;55.98;102529.88;4862317;29;20456;-87
2024/01/23 07:34:39;;;;;;;0.20;0.20;;;;;;;0.84;56.00;102521.56;4863267;29;20506;-87
2024/01/23 07:37:07;;;;;;;0.10;0.10;;;;;;;0.90;55.88;102524.78;4865817;29;20385;-88
2024/01/23 07:39:33;;;;;;;0.28;0.28;;;;;;;0.97;55.86;102514.91;4868373;29;20441;-89
2024/01/23 07:41:59;;;;;;;1.30;1.15;;;;;;;0.89;55.92;102515.25;4867567;29;20420;-90
2024/01/23 07:44:24;;;;;;;0.60;0.60;;;;;;;0.87;56.03;102519.69;4872603;29;20489;-89
2024/01/23 07:46:53;;;;;;;0.47;0.40;;;;;;;1.05;56.11;102520.69;4871214;29;20433;-90
2024/01/23 07:49:19;;;;;;;0.73;0.73;;;;;;;1.01;55.69;102521.75;4871905;29;20420;-90
2024/01/23 07:51:50;;;;;;;0.32;0.32;;;;;;;0.98;56.14;102521.84;4869644;29;20417;-89
2024/01/23 07:54:17;;;;;;;0.40;0.40;;;;;;;0.97;56.06;102519.31;4869239;29;20504;-90
2024/01/23 07:56:45;;;;;;;1.50;1.10;;;;;;;1.01;56.03;102529.56;4868913;29;20784;-89
2024/01/23 07:59:14;;;;;;;0.20;0.20;;;;;;;1.12;56.20;102527.34;4872638;29;20405;-91
2024/01/23 08:01:40;;;;;;;0.70;0.70;;;;;;;1.14;55.79;102532.53;4873042;29;20468;-91
2024/01/23 08:04:06;;;;;;;0.60;0.60;;;;;;;1.02;55.68;102525.19;4874723;29;20402;-91
2024/01/23 08:06:31;;;;;;;0.73;0.70;;;;;;;1.01;55.98;102518.25;4874439;29;20475;-90
2024/01/23 08:08:57;;;;;;;0.90;0.70;;;;;;;1.26;55.86;102523.31;4874039;29;20409;-89
2024/01/23 08:11:25;;;;;;;0.20;0.20;;;;;;;1.32;55.68;102510.84;4872625;29;20458;-90
2024/01/23 08:13:51;;;;;;;0.40;0.40;;;;;;;1.33;55.59;102522.13;4877890;29;20433;-89
2024/01/23 08:16:17;;;;;;;0.30;0.30;;;;;;;1.40;55.56;102520.13;4883003;29;20408;-86
2024/01/23 08:18:44;;;;;;;0.80;0.80;;;;;;;1.39;55.16;102516.66;4890818;29;20425;-89
2024/01/23 08:21:11;;;;;;;0.95;0.80;;;;;;;1.43;55.38;102509.53;4871649;29;20927;-90
2024/01/23 08:23:57;;;;;;;3.22;1.85;;;;;;;1.52;55.26;102491.69;4873010;29;20405;-93
2024/01/23 08:26:23;;;;;;;0.70;0.70;;;;;;;1.61;55.12;102508.72;4867569;29;20437;-89
2024/01/23 08:28:49;;;;;;;0.38;0.38;;;;;;;1.48;55.36;102494.53;4859955;29;20402;-87
2024/01/23 08:31:14;;;;;;;1.13;1.05;;;;;;;1.53;55.48;102493.41;4863292;29;20444;-87
2024/01/23 08:33:43;;;;;;;0.77;0.77;;;;;;;1.66;55.34;102500.69;4867668;29;20952;-88
2024/01/23 08:36:09;;;;;;;0.47;0.47;;;;;;;1.41;55.14;102486.09;4875195;29;20390;-85
2024/01/23 08:38:36;;;;;;;1.08;1.00;;;;;;;1.42;55.48;102482.53;4864491;29;20397;-87
2024/01/23 08:41:02;;;;;;;1.48;1.38;;;;;;;1.50;55.01;102483.06;4866958;29;20409;-87
2024/01/23 08:43:28;;;;;;;2.05;1.30;;;;;;;1.66;55.31;102479.78;4862466;29;20476;-86
2024/01/23 08:45:54;;;;;;;2.13;0.77;;;;;;;1.63;54.84;102475.53;4866008;29;20405;-89
2024/01/23 08:48:23;;;;;;;0.75;0.75;;;;;;;1.59;54.75;102470.53;4884976;29;20432;-86
2024/01/23 08:50:51;;;;;;;0.77;0.77;;;;;;;1.38;54.37;102478.38;4869047;29;20408;-86
2024/01/23 08:53:17;;;;;;;0.90;0.40;;;;;;;1.46;55.17;102476.28;4867613;29;20791;-89
2024/01/23 08:55:43;;;;;;;0.70;0.70;;;;;;;1.56;55.17;102484.56;4868271;29;20459;-88
2024/01/23 08:58:10;;;;;;;1.50;1.40;;;;;;;1.61;54.58;102477.38;4883232;29;20464;-88
2024/01/23 09:00:36;;;;;;;1.50;1.40;;;;;;;1.46;54.84;102478.03;4848924;29;20408;-87
2024/01/23 09:03:02;;;;;;;2.77;2.57;;;;;;;1.53;54.77;102466.38;4867981;29;21164;-90
2024/01/23 09:05:27;;;;;;;24.80;14.55;;;;;;;1.66;54.36;102472.78;4876384;29;20419;-88
2024/01/23 09:07:54;;;;;;;7.07;5.70;;;;;;;1.75;54.63;102479.38;4880468;29;20423;-88
2024/01/23 09:10:22;;;;;;;2.25;2.08;;;;;;;1.67;54.13;102474.47;4869235;29;20911;-88
2024/01/23 09:12:47;;;;;;;1.08;1.05;;;;;;;1.40;54.56;102483.53;4870917;29;20423;-88
2024/01/23 09:15:13;;;;;;;0.60;0.60;;;;;;;1.38;54.59;102487.97;4873195;29;20435;-88
2024/01/23 09:17:40;;;;;;;1.77;1.67;;;;;;;1.57;54.97;102490.63;4871645;29;20476;-87
2024/01/23 09:20:11;;;;;;;2.83;1.43;;;;;;;1.70;54.64;102484.78;4872370;29;20409;-88
2024/01/23 09:22:36;;;;;;;1.25;1.15;;;;;;;1.92;54.34;102473.38;4857056;29;20408;-88
2024/01/23 09:25:05;;;;;;;1.48;1.15;;;;;;;2.06;54.00;102480.59;4866293;29;20420;-88
2024/01/23 09:27:30;;;;;;;2.70;2.20;;;;;;;2.15;53.68;102481.94;4863262;29;20409;-87
2024/01/23 09:29:57;;;;;;;1.20;1.10;;;;;;;1.94;54.05;102460.22;4866579;29;20515;-87
2024/01/23 09:32:23;;;;;;;1.10;0.88;;;;;;;2.20;53.91;102467.72;4852759;29;20424;-88
2024/01/23 09:34:52;;;;;;;3.00;1.93;;;;;;;2.16;53.68;102441.75;4851733;29;20469;-88
2024/01/23 09:37:18;;;;;;;2.20;0.68;;;;;;;2.08;53.52;102440.34;4853064;29;20418;-88
2024/01/23 09:39:45;;;;;;;0.40;0.40;;;;;;;2.08;53.38;102455.19;4865064;29;20427;-88
2024/01/23 09:42:14;;;;;;;2.40;2.20;;;;;;;1.96;53.78;102459.22;4865452;29;20488;-88
2024/01/23 09:44:42;;;;;;;0.60;0.60;;;;;;;2.10;53.79;102458.59;4864950;29;20413;-88
2024/01/23 09:47:10;;;;;;;1.17;0.60;;;;;;;2.13;53.32;102455.84;4865647;29;20512;-89
2024/01/23 09:49:37;;;;;;;0.88;0.88;;;;;;;1.91;53.13;102459.44;4865276;29;20386;-88
2024/01/23 09:52:05;;;;;;;0.70;0.70;;;;;;;1.78;53.96;102460.91;4863802;29;20829;-87
2024/01/23 09:54:31;;;;;;;0.60;0.60;;;;;;;1.99;53.71;102466.09;4865387;29;20404;-88
2024/01/23 09:57:01;;;;;;;0.60;0.60;;;;;;;2.14;53.53;102457.50;4865048;29;20409;-87
2024/01/23 09:59:28;;;;;;;0.30;0.30;;;;;;;2.31;53.48;102455.91;4860466;29;20425;-87
2024/01/23 10:01:55;;;;;;;2.25;1.08;;;;;;;2.35;52.85;102442.56;4876571;29;20425;-87
2024/01/23 10:04:25;;;;;;;0.50;0.50;;;;;;;2.47;53.31;102443.75;4863265;29;20845;-88
2024/01/23 10:06:51;;;;;;;2.40;1.40;;;;;;;2.51;52.43;102444.47;4866050;29;20413;-89
2024/01/23 10:09:18;;;;;;;1.23;1.10;;;;;;;2.50;52.92;102435.75;4871394;29;20489;-89
2024/01/23 10:11:44;;;;;;;0.50;0.38;;;;;;;2.71;52.46;102443.47;4865581;29;20425;-87
2024/01/23 10:14:10;;;;;;;0.50;0.50;;;;;;;2.49;51.96;102442.75;4886029;29;20409;-85
2024/01/23 10:16:39;;;;;;;0.68;0.68;;;;;;;2.27;52.19;102449.97;4871878;29;20489;-88
2024/01/23 10:19:15;;;;;;;0.68;0.68;;;;;;;2.05;51.82;102430.03;4879505;29;20437;-89
2024/01/23 10:21:41;;;;;;;0.65;0.63;;;;;;;2.22;52.36;102431.00;4865570;29;20425;-88
2024/01/23 10:24:07;;;;;;;0.50;0.50;;;;;;;2.65;52.90;102421.91;4865821;29;20405;-88
2024/01/23 10:26:34;;;;;;;0.70;0.50;;;;;;;2.46;51.68;102421.94;4870284;29;20413;-88
2024/01/23 10:29:04;;;;;;;0.30;0.30;;;;;;;2.54;52.31;102425.97;4879682;29;20409;-86
2024/01/23 10:31:30;;;;;;;0.50;0.50;;;;;;;2.28;51.85;102422.84;4864264;29;20449;-86
2024/01/23 10:34:09;;;;;;;0.83;0.83;;;;;;;2.42;52.44;102416.97;4880217;29;20417;-88
2024/01/23 10:36:39;;;;;;;1.25;1.15;;;;;;;2.79;52.47;102415.13;4890096;29;20405;-89
2024/01/23 10:39:13;;;;;;;0.73;0.73;;;;;;;3.09;52.00;102404.00;4849461;29;20414;-89
2024/01/23 10:41:44;;;;;;;1.40;1.07;;;;;;;3.03;51.78;102406.03;4865104;29;20413;-87
2024/01/23 10:44:13;;;;;;;1.83;1.42;;;;;;;3.02;51.79;102395.63;4868808;29;20409;-88
2024/01/23 10:46:41;;;;;;;1.85;1.75;;;;;;;3.21;51.80;102392.91;4864770;29;20469;-88
2024/01/23 10:49:07;;;;;;;1.70;1.15;;;;;;;3.17;50.96;102401.81;4849646;29;20458;-93
2024/01/23 10:51:37;;;;;;;1.80;1.70;;;;;;;3.30;51.50;102397.66;4865056;29;20684;-88
2024/01/23 10:54:13;;;;;;;0.80;0.80;;;;;;;3.24;50.66;102392.72;4868091;29;20405;-86
2024/01/23 10:56:44;;;;;;;2.50;2.30;;;;;;;3.32;51.25;102387.09;4850729;29;20471;-87
2024/01/23 10:59:26;;;;;;;1.90;1.80;;;;;;;3.56;50.69;102384.91;4867771;29;20398;-87
2024/01/23 11:02:23;;;;;;;0.90;0.90;;;;;;;3.53;50.82;102375.47;4868172;29;20418;-88
2024/01/23 11:04:51;;;;;;;0.70;0.70;;;;;;;3.75;51.41;102374.28;4867124;29;20488;-87
2024/01/23 11:07:49;;;;;;;2.60;2.30;;;;;;;3.78;50.90;102368.84;4883763;29;20909;-88
2024/01/23 11:10:48;;;;;;;2.40;1.00;;;;;;;3.82;50.50;102368.59;4866532;29;20413;-87
2024/01/23 11:13:21;;;;;;;2.30;2.20;;;;;;;4.08;50.48;102362.84;4870439;29;20417;-87
2024/01/23 11:15:48;;;;;;;1.23;1.17;;;;;;;4.09;50.32;102351.38;4869555;29;20477;-89
2024/01/23 11:18:32;;;;;;;0.52;0.52;;;;;;;4.20;50.34;102360.34;4870135;29;20397;-90
2024/01/23 11:21:05;;;;;;;1.02;0.93;;;;;;;4.25;50.15;102359.22;4869476;29;20405;-87
2024/01/23 11:23:31;;;;;;;0.93;0.77;;;;;;;4.21;50.05;102356.81;4866324;29;20766;-87
2024/01/23 11:26:08;;;;;;;0.30;0.30;;;;;;;4.28;50.04;102338.06;4866549;29;20450;-88
2024/01/23 11:28:36;;;;;;;0.63;0.63;;;;;;;4.43;49.48;102337.19;4864196;29;20485;-88
2024/01/23 11:31:07;;;;;;;0.93;0.87;;;;;;;4.51;49.80;102332.31;4863547;29;20437;-88